Time;durP1;ratioP1;P1;durP2;ratioP2;P2;SDS_P1;SDS_P2;PMS_P1;PMS_P2;Temp;Humidity;BMP_temperature;BMP_pressure;BME280_temperature;BME280_humidity;BME280_pressure;Samples;Min_cycle;Max_cycle;Signal;HPM_P1;HPM_P2
2022/03/26 00:01:25;;;;;;;92.75;40.55;;;;;;;10.32;49.45;100138.88;4599231;76;28511;-80
2022/03/26 00:07:26;;;;;;;94.70;39.70;;;;;;;10.52;47.52;100139.48;4518415;77;28460;-80
2022/03/26 00:13:28;;;;;;;94.28;41.42;;;;;;;10.41;48.73;100144.42;4519803;77;28524;-80
2022/03/26 00:19:29;;;;;;;85.75;39.53;;;;;;;10.39;48.94;100133.52;4530684;77;28509;-81
2022/03/26 00:25:31;;;;;;;84.32;37.60;;;;;;;10.40;48.46;100128.45;4550658;76;29086;-81
2022/03/26 00:31:33;;;;;;;97.22;41.73;;;;;;;10.33;48.44;100127.09;4503057;77;28527;-81
2022/03/26 00:37:34;;;;;;;91.17;40.78;;;;;;;10.37;48.17;100128.87;4532290;76;28522;-81
2022/03/26 00:43:36;;;;;;;97.57;42.13;;;;;;;10.26;49.68;100128.92;4567912;77;28543;-80
2022/03/26 00:49:38;;;;;;;90.53;41.60;;;;;;;10.24;48.50;100120.24;4550961;77;28482;-80
2022/03/26 00:55:39;;;;;;;85.12;38.13;;;;;;;10.23;49.52;100119.41;4578956;77;28547;-81
2022/03/26 01:01:41;;;;;;;84.50;38.55;;;;;;;10.58;48.84;100119.83;4577385;76;28554;-80
2022/03/26 01:07:42;;;;;;;88.27;39.53;;;;;;;10.36;49.02;100122.65;4543445;77;28491;-81
2022/03/26 01:13:45;;;;;;;96.35;42.10;;;;;;;10.08;49.79;100120.91;4388411;79;28555;-78
2022/03/26 01:19:47;;;;;;;91.12;40.10;;;;;;;10.01;50.17;100122.75;4463051;77;28616;-78
2022/03/26 01:25:48;;;;;;;82.42;37.85;;;;;;;10.08;49.41;100113.38;4531313;77;28496;-79
2022/03/26 01:31:50;;;;;;;79.20;36.85;;;;;;;10.08;49.93;100112.84;4561535;77;28459;-79
2022/03/26 01:37:51;;;;;;;86.50;39.95;;;;;;;10.09;49.47;100117.18;4554283;77;28520;-78
2022/03/26 01:43:53;;;;;;;85.15;39.08;;;;;;;9.98;49.73;100111.05;4549128;77;28457;-77
2022/03/26 01:49:54;;;;;;;84.17;38.17;;;;;;;10.08;48.76;100117.41;4548823;77;28512;-78
2022/03/26 01:55:56;;;;;;;86.75;37.17;;;;;;;10.24;48.87;100116.21;4572652;76;28498;-78
2022/03/26 02:01:57;;;;;;;81.42;35.65;;;;;;;10.12;48.13;100123.52;4558966;76;28544;-78
2022/03/26 02:07:59;;;;;;;74.90;32.85;;;;;;;9.61;48.92;100124.22;4558937;77;28492;-77
2022/03/26 02:14:02;;;;;;;69.25;33.88;;;;;;;9.54;49.24;100114.47;4562507;76;28518;-77
2022/03/26 02:20:08;;;;;;;72.25;33.67;;;;;;;9.37;49.58;100123.32;4576704;77;28443;-77
2022/03/26 02:26:09;;;;;;;70.40;31.73;;;;;;;9.23;49.87;100127.27;4597150;77;28493;-77
2022/03/26 02:32:11;;;;;;;75.67;34.38;;;;;;;9.12;49.95;100121.09;4596222;77;28482;-80
2022/03/26 02:38:12;;;;;;;69.75;31.87;;;;;;;9.12;50.33;100125.96;4597983;76;28479;-80
2022/03/26 02:44:13;;;;;;;79.00;34.45;;;;;;;8.80;51.30;100121.47;4598183;76;28574;-81
2022/03/26 02:50:15;;;;;;;67.08;31.70;;;;;;;8.77;50.94;100121.34;4597470;76;28521;-80
2022/03/26 02:56:18;;;;;;;62.67;30.50;;;;;;;8.65;51.44;100123.70;4626486;76;28507;-79
2022/03/26 03:02:19;;;;;;;71.97;33.05;;;;;;;8.52;51.59;100126.25;4593155;76;28513;-80
2022/03/26 03:08:22;;;;;;;66.67;32.53;;;;;;;8.57;51.66;100123.00;4582098;77;28646;-78
2022/03/26 03:14:23;;;;;;;72.22;33.55;;;;;;;8.49;52.34;100114.02;4573517;78;28504;-78
2022/03/26 03:20:25;;;;;;;80.95;35.73;;;;;;;8.53;52.95;100115.85;4544420;77;28506;-79
2022/03/26 03:26:26;;;;;;;74.82;35.05;;;;;;;8.44;53.87;100102.22;4521158;77;28519;-80
2022/03/26 03:32:28;;;;;;;76.75;36.88;;;;;;;8.50;54.04;100102.31;4581669;77;28552;-79
2022/03/26 03:38:29;;;;;;;78.50;35.50;;;;;;;8.37;53.54;100106.17;4570906;77;28509;-79
2022/03/26 03:44:31;;;;;;;76.65;36.25;;;;;;;8.53;53.47;100106.47;4582095;77;28563;-80
2022/03/26 03:50:32;;;;;;;82.47;37.23;;;;;;;8.76;52.92;100105.44;4548100;77;28475;-79
2022/03/26 03:56:33;;;;;;;79.15;38.10;;;;;;;8.75;53.06;100094.39;4575777;77;28468;-80
2022/03/26 04:02:35;;;;;;;78.72;35.43;;;;;;;8.95;53.01;100097.22;4577126;77;28567;-79
2022/03/26 04:08:36;;;;;;;78.70;36.35;;;;;;;8.87;53.40;100088.81;4560926;77;28517;-80
2022/03/26 04:14:43;;;;;;;82.57;34.20;;;;;;;8.95;52.17;100078.98;4609837;77;28528;-78
2022/03/26 04:20:40;;;;;;;80.55;35.70;;;;;;;9.18;51.42;100080.89;4556652;77;28539;-78
2022/03/26 04:26:42;;;;;;;79.62;36.90;;;;;;;8.91;52.73;100084.74;4561439;76;28500;-80
2022/03/26 04:32:43;;;;;;;84.20;37.28;;;;;;;8.97;51.60;100090.34;4581062;77;28492;-80
2022/03/26 04:38:45;;;;;;;85.20;38.50;;;;;;;9.06;52.32;100086.48;4544296;77;28533;-77
2022/03/26 04:44:46;;;;;;;79.53;36.20;;;;;;;9.07;52.28;100093.51;4568226;76;28560;-78
2022/03/26 04:50:47;;;;;;;84.70;39.18;;;;;;;9.12;52.33;100091.58;4619407;75;28594;-72
2022/03/26 04:56:48;;;;;;;85.07;40.05;;;;;;;9.31;50.83;100089.55;4606983;76;28457;-79
2022/03/26 05:02:50;;;;;;;87.90;40.78;;;;;;;9.42;51.21;100086.00;4542703;77;28514;-80
2022/03/26 05:08:51;;;;;;;86.85;38.25;;;;;;;9.49;51.07;100080.98;4438469;78;28515;-79
2022/03/26 05:14:52;;;;;;;87.05;40.55;;;;;;;9.70;50.02;100086.47;4424991;78;28523;-77
2022/03/26 05:20:56;;;;;;;85.35;37.85;;;;;;;9.91;49.71;100070.73;4421341;77;28507;-79
2022/03/26 05:26:57;;;;;;;82.20;38.05;;;;;;;10.10;49.32;100082.59;4440915;78;28554;-77
2022/03/26 05:32:59;;;;;;;88.10;39.70;;;;;;;10.08;49.29;100077.91;4506669;76;28537;-81
2022/03/26 05:39:00;;;;;;;84.65;39.73;;;;;;;10.16;49.09;100069.67;4544578;76;28512;-79
2022/03/26 05:45:07;;;;;;;80.67;38.33;;;;;;;10.22;49.34;100059.97;4530357;77;28471;-80
2022/03/26 05:51:08;;;;;;;87.62;38.25;;;;;;;9.92;49.76;100056.80;4507454;77;28949;-82
2022/03/26 05:57:09;;;;;;;77.12;36.00;;;;;;;10.18;48.95;100056.85;4316982;80;28550;-77
2022/03/26 06:03:10;;;;;;;78.35;36.93;;;;;;;10.26;48.75;100055.02;4375730;79;28536;-77
2022/03/26 06:09:12;;;;;;;77.60;37.15;;;;;;;10.26;48.57;100060.39;4373302;80;28458;-78
2022/03/26 06:15:13;;;;;;;74.05;37.38;;;;;;;10.48;47.78;100054.36;4346632;79;28553;-77
2022/03/26 06:21:16;;;;;;;70.10;34.15;;;;;;;10.90;47.02;100050.64;4377033;80;28565;-77
2022/03/26 06:27:17;;;;;;;77.70;35.40;;;;;;;11.25;46.22;100056.59;4399084;79;28468;-76
2022/03/26 06:33:18;;;;;;;71.65;32.65;;;;;;;11.50;45.73;100049.16;4338072;79;28487;-77
2022/03/26 06:39:20;;;;;;;69.60;33.50;;;;;;;11.71;45.38;100061.53;4355617;80;28495;-78
2022/03/26 06:45:21;;;;;;;64.60;31.52;;;;;;;11.65;44.61;100060.19;4350310;80;28536;-78
2022/03/26 06:51:23;;;;;;;61.65;30.50;;;;;;;11.86;43.88;100057.19;4353199;79;28585;-78
2022/03/26 06:57:24;;;;;;;62.40;30.23;;;;;;;11.99;43.52;100070.31;4337147;79;28508;-77
2022/03/26 07:03:26;;;;;;;64.35;29.32;;;;;;;12.46;42.94;100066.53;4391853;77;28560;-77
2022/03/26 07:09:27;;;;;;;59.25;27.93;;;;;;;12.79;42.49;100064.94;4486556;77;28523;-77
2022/03/26 07:15:31;;;;;;;58.20;27.30;;;;;;;13.07;42.11;100058.77;4525496;76;28536;-78
2022/03/26 07:21:32;;;;;;;57.73;26.82;;;;;;;13.26;40.75;100056.91;4530913;76;28498;-78
2022/03/26 07:27:35;;;;;;;55.40;25.08;;;;;;;13.44;40.29;100057.98;4523948;76;28515;-77
2022/03/26 07:33:37;;;;;;;64.12;29.92;;;;;;;14.00;39.71;100070.95;4530065;76;28507;-76
2022/03/26 07:39:40;;;;;;;56.48;28.15;;;;;;;14.24;40.60;100062.11;4519052;76;28540;-80
2022/03/26 07:45:41;;;;;;;55.05;26.80;;;;;;;14.34;40.50;100065.89;4521743;76;28536;-79
2022/03/26 07:51:43;;;;;;;49.23;24.92;;;;;;;14.74;39.46;100067.20;4529556;76;28499;-79
2022/03/26 07:57:44;;;;;;;48.60;23.18;;;;;;;15.19;38.46;100060.91;4527020;76;28519;-79
2022/03/26 08:03:49;;;;;;;48.70;23.18;;;;;;;15.12;38.19;100060.19;4532154;76;28521;-76
2022/03/26 08:09:50;;;;;;;42.65;21.07;;;;;;;15.73;37.74;100053.92;4513798;76;28499;-74
2022/03/26 08:15:52;;;;;;;41.53;19.77;;;;;;;15.61;37.87;100059.88;4510548;76;28565;-74
2022/03/26 08:21:54;;;;;;;45.52;19.50;;;;;;;16.10;37.55;100048.68;4543642;76;28503;-75
2022/03/26 08:27:55;;;;;;;41.37;20.23;;;;;;;16.00;37.88;100039.00;4538156;76;28511;-74
2022/03/26 08:33:58;;;;;;;41.18;18.80;;;;;;;16.49;37.32;100042.56;4540861;76;28528;-74
2022/03/26 08:40:00;;;;;;;40.15;19.62;;;;;;;16.53;37.37;100041.54;4538382;76;28502;-75
2022/03/26 08:46:04;;;;;;;36.17;18.45;;;;;;;16.72;37.82;100029.37;4558162;76;28536;-78
2022/03/26 08:52:06;;;;;;;35.88;18.50;;;;;;;16.91;37.63;100008.70;4529069;76;28496;-73
2022/03/26 08:58:07;;;;;;;38.98;18.50;;;;;;;17.47;36.84;100007.86;4530959;76;28514;-73
2022/03/26 09:04:11;;;;;;;41.40;18.85;;;;;;;17.65;36.65;99998.55;4529039;76;28529;-72
2022/03/26 09:10:12;;;;;;;40.25;17.90;;;;;;;17.83;37.00;99991.94;4509060;77;28542;-72
2022/03/26 09:16:14;;;;;;;38.67;15.75;;;;;;;18.23;36.81;99985.83;4458446;77;28505;-73
2022/03/26 09:22:15;;;;;;;30.77;15.90;;;;;;;18.41;37.08;99975.61;4471075;78;28544;-73
2022/03/26 09:28:16;;;;;;;32.90;14.73;;;;;;;18.33;36.77;99986.45;4456578;78;28502;-74
2022/03/26 09:34:20;;;;;;;35.55;16.40;;;;;;;18.10;37.38;99972.11;4463176;78;28545;-74
2022/03/26 09:40:23;;;;;;;29.10;14.78;;;;;;;18.70;36.95;99966.30;4458669;78;28467;-74
2022/03/26 09:46:28;;;;;;;23.47;13.10;;;;;;;18.86;36.35;99955.76;4486996;77;28495;-75
2022/03/26 09:52:30;;;;;;;22.25;12.58;;;;;;;19.19;36.77;99951.59;4440627;77;28571;-76
2022/03/26 09:58:31;;;;;;;27.70;14.03;;;;;;;19.45;37.08;99938.03;4459434;77;28523;-76
2022/03/26 10:04:40;;;;;;;30.82;13.75;;;;;;;19.50;34.88;99943.52;4450883;76;28558;-76
2022/03/26 10:10:45;;;;;;;27.65;12.80;;;;;;;19.79;34.84;99923.38;4451526;77;28494;-75
2022/03/26 10:16:52;;;;;;;27.70;13.30;;;;;;;19.63;34.50;99927.19;4456964;77;38129;-75
2022/03/26 10:22:55;;;;;;;27.37;13.38;;;;;;;19.45;33.79;99926.59;4476102;77;28484;-76
2022/03/26 10:28:58;;;;;;;28.00;13.53;;;;;;;19.92;33.91;99909.76;4421072;77;28499;-75
2022/03/26 10:35:04;;;;;;;27.77;14.28;;;;;;;20.28;33.99;99890.38;4436016;77;28570;-76
2022/03/26 10:41:08;;;;;;;27.77;14.78;;;;;;;19.84;33.64;99913.02;4449193;77;28603;-75
2022/03/26 10:47:15;;;;;;;27.27;13.95;;;;;;;20.27;33.55;99882.75;4460022;77;28452;-75
2022/03/26 10:53:18;;;;;;;23.32;13.15;;;;;;;20.79;32.68;99884.52;4426816;77;28554;-75
2022/03/26 10:59:22;;;;;;;22.17;12.45;;;;;;;20.74;32.38;99884.82;4409131;77;28508;-75
2022/03/26 11:05:24;;;;;;;27.77;14.53;;;;;;;21.03;32.36;99879.27;4455337;77;28535;-74
2022/03/26 11:11:28;;;;;;;25.20;13.93;;;;;;;20.98;32.22;99869.70;4526423;76;28540;-83
2022/03/26 11:18:01;;;;;;;27.58;13.80;;;;;;;21.44;32.20;99854.96;4534041;76;28532;-83
2022/03/26 11:24:53;;;;;;;27.98;14.95;;;;;;;21.86;31.17;99849.47;4523296;76;28665;-83
2022/03/26 11:31:21;;;;;;;25.72;12.78;;;;;;;22.00;30.91;99841.41;4462264;77;28650;-84
2022/03/26 11:37:23;;;;;;;25.68;13.65;;;;;;;21.86;30.42;99815.82;4535276;76;28540;-81
2022/03/26 11:43:48;;;;;;;16.82;9.03;;;;;;;21.94;30.79;99813.83;4522084;76;28578;-81
2022/03/26 11:56:23;;;;;;;22.05;9.15;;;;;;;21.73;28.95;99794.86;4429655;78;28560;-81
2022/03/26 12:02:27;;;;;;;18.92;8.38;;;;;;;21.79;28.95;99797.00;4397091;78;28516;-81
2022/03/26 12:08:40;;;;;;;18.98;8.55;;;;;;;21.92;28.42;99777.73;4357731;79;28479;-81
2022/03/26 12:15:08;;;;;;;16.02;7.75;;;;;;;21.70;28.41;99794.62;4349657;79;28559;-80
2022/03/26 12:21:26;;;;;;;20.60;9.20;;;;;;;22.00;28.30;99760.64;4357770;79;28542;-80
2022/03/26 12:27:29;;;;;;;18.85;9.40;;;;;;;22.15;28.31;99765.71;4367163;79;28556;-82
2022/03/26 12:33:43;;;;;;;18.92;9.88;;;;;;;22.02;28.79;99771.31;4366125;79;28580;-81
2022/03/26 12:39:45;;;;;;;17.85;9.18;;;;;;;22.40;28.58;99772.81;4401268;79;28578;-82
2022/03/26 12:45:47;;;;;;;18.73;8.00;;;;;;;22.12;28.82;99753.41;4366211;79;28582;-81
2022/03/26 12:51:53;;;;;;;16.20;7.70;;;;;;;22.27;28.75;99742.83;4321310;79;28599;-79
2022/03/26 13:04:17;;;;;;;12.15;6.80;;;;;;;22.54;27.69;99720.06;4336061;79;28485;-85
2022/03/26 13:10:33;;;;;;;15.83;7.55;;;;;;;22.59;27.02;99743.84;4326278;80;28561;-85
2022/03/26 13:16:37;;;;;;;16.20;7.17;;;;;;;22.36;26.76;99720.28;4478146;77;28468;-85
2022/03/26 13:22:41;;;;;;;15.55;7.62;;;;;;;22.52;26.60;99709.39;4518935;77;28922;-86
2022/03/26 13:28:43;;;;;;;16.27;7.83;;;;;;;22.80;26.29;99690.91;4494835;77;28921;-83
2022/03/26 13:34:47;;;;;;;14.83;8.48;;;;;;;23.15;26.22;99678.31;4500995;77;28513;-84
2022/03/26 13:40:48;;;;;;;16.23;8.73;;;;;;;23.19;26.40;99694.44;4494482;77;28491;-84
2022/03/26 13:46:51;;;;;;;20.17;8.63;;;;;;;23.60;25.73;99686.06;4491762;77;28541;-84
2022/03/26 13:52:53;;;;;;;18.50;8.40;;;;;;;23.42;25.78;99678.17;4475215;77;28486;-87
2022/03/26 13:58:56;;;;;;;14.50;8.43;;;;;;;23.03;25.99;99691.94;4480423;78;28515;-89
2022/03/26 14:04:57;;;;;;;15.65;7.33;;;;;;;23.89;25.44;99648.70;4566643;77;28540;-85
2022/03/26 14:11:00;;;;;;;11.55;7.22;;;;;;;23.62;25.57;99662.70;4692971;76;28442;-84
2022/03/26 14:17:03;;;;;;;19.42;8.23;;;;;;;23.30;25.60;99639.69;4583144;77;28481;-85
2022/03/26 14:23:07;;;;;;;22.60;8.28;;;;;;;23.44;25.72;99645.20;4587184;77;28501;-85
2022/03/26 14:29:08;;;;;;;14.70;7.78;;;;;;;23.49;25.97;99630.00;4588016;78;28490;-85
2022/03/26 14:35:10;;;;;;;14.00;8.13;;;;;;;23.48;26.09;99616.03;4587726;78;28496;-85
2022/03/26 14:41:11;;;;;;;16.48;8.15;;;;;;;23.38;26.46;99629.94;4588703;78;28537;-84
2022/03/26 14:47:12;;;;;;;13.68;7.45;;;;;;;23.28;26.93;99614.50;4589099;77;28486;-85
2022/03/26 14:53:14;;;;;;;13.70;8.43;;;;;;;23.69;26.09;99611.52;4582778;78;28469;-85
2022/03/26 14:59:16;;;;;;;15.15;8.38;;;;;;;23.32;26.42;99620.99;4554171;78;28493;-85
2022/03/26 15:05:17;;;;;;;9.93;5.62;;;;;;;23.10;26.43;99607.36;4572987;77;28570;-85
2022/03/26 15:11:19;;;;;;;11.43;5.47;;;;;;;22.76;26.08;99621.37;4480515;77;28460;-84
2022/03/26 15:17:20;;;;;;;15.25;5.62;;;;;;;22.29;26.28;99637.11;4486388;79;28492;-84
2022/03/26 15:23:22;;;;;;;12.20;4.50;;;;;;;22.37;26.43;99619.98;4487025;79;28513;-85
2022/03/26 15:29:24;;;;;;;15.72;6.97;;;;;;;22.50;26.38;99626.69;4431037;79;28488;-85
2022/03/26 15:35:25;;;;;;;14.58;6.40;;;;;;;22.61;26.91;99641.06;4519390;78;28532;-85
2022/03/26 15:41:26;;;;;;;15.30;6.45;;;;;;;22.48;27.26;99625.31;4556246;78;28474;-86
2022/03/26 15:47:29;;;;;;;12.10;6.08;;;;;;;22.60;27.06;99632.58;4442677;79;28498;-85
2022/03/26 15:53:30;;;;;;;11.22;5.05;;;;;;;21.55;28.55;99653.27;4452923;78;28468;-86
2022/03/26 15:59:33;;;;;;;13.13;5.67;;;;;;;21.59;29.22;99656.52;4429796;78;28566;-81
2022/03/26 16:05:35;;;;;;;12.00;5.55;;;;;;;21.39;30.17;99669.02;4433881;78;28547;-82
2022/03/26 16:11:36;;;;;;;14.25;5.08;;;;;;;21.05;30.97;99673.41;4530699;77;28526;-82
2022/03/26 16:17:38;;;;;;;12.03;4.92;;;;;;;21.42;30.78;99669.27;4495937;77;28510;-81
2022/03/26 16:23:39;;;;;;;11.45;5.17;;;;;;;21.55;30.61;99672.42;4523348;77;28479;-81
2022/03/26 16:29:43;;;;;;;12.88;5.17;;;;;;;21.41;30.71;99666.81;4525928;77;28559;-80
2022/03/26 16:35:44;;;;;;;12.88;4.85;;;;;;;21.57;30.54;99682.52;4492305;77;28576;-81
2022/03/26 16:41:45;;;;;;;9.28;5.47;;;;;;;21.26;31.35;99689.64;4538791;77;28506;-80
2022/03/26 16:47:46;;;;;;;10.68;5.62;;;;;;;21.29;31.52;99703.56;4537820;77;28488;-83
2022/03/26 16:53:48;;;;;;;13.13;6.65;;;;;;;21.10;32.10;99703.99;4506147;77;28430;-79
2022/03/26 16:59:49;;;;;;;17.98;7.08;;;;;;;20.84;33.14;99702.26;4516890;76;28511;-80
2022/03/26 17:06:00;;;;;;;15.03;6.33;;;;;;;20.90;32.93;99713.97;4500809;76;28543;-81
2022/03/26 17:11:55;;;;;;;10.25;5.80;;;;;;;20.99;32.90;99718.30;4553318;77;28541;-76
2022/03/26 17:17:57;;;;;;;13.83;6.62;;;;;;;21.05;33.07;99709.52;4523837;76;28571;-80
2022/03/26 17:23:58;;;;;;;14.18;6.42;;;;;;;21.20;33.06;99716.22;4510130;78;28531;-81
2022/03/26 17:30:00;;;;;;;11.90;6.75;;;;;;;20.96;33.46;99731.98;4566953;77;28484;-79
2022/03/26 17:36:04;;;;;;;19.37;8.68;;;;;;;20.96;33.44;99737.45;4536137;77;28473;-79
2022/03/26 17:42:06;;;;;;;14.10;7.00;;;;;;;20.33;34.97;99738.84;4549832;77;28447;-80
2022/03/26 17:48:08;;;;;;;9.50;5.10;;;;;;;19.92;36.00;99761.57;4555608;76;28493;-80
2022/03/26 17:54:09;;;;;;;10.23;5.90;;;;;;;19.72;38.05;99780.16;4520944;76;28555;-81
2022/03/26 18:00:11;;;;;;;13.93;5.87;;;;;;;19.35;39.92;99784.80;4533814;77;28892;-79
2022/03/26 18:06:12;;;;;;;11.08;5.70;;;;;;;18.71;41.93;99817.58;4526746;77;28491;-80
2022/03/26 18:12:15;;;;;;;14.07;6.03;;;;;;;18.48;43.58;99825.63;4505294;77;28501;-82
2022/03/26 18:18:16;;;;;;;14.58;6.22;;;;;;;18.94;43.32;99829.09;4546953;77;28488;-82
2022/03/26 18:24:17;;;;;;;13.32;6.45;;;;;;;18.89;43.55;99831.25;4537805;77;28561;-82
2022/03/26 18:30:19;;;;;;;19.77;9.08;;;;;;;18.91;44.96;99860.44;4497291;78;28513;-83
2022/03/26 18:36:20;;;;;;;18.82;9.85;;;;;;;17.86;56.03;99894.05;4533153;78;28463;-81
2022/03/26 18:42:24;;;;;;;21.25;9.43;;;;;;;17.98;58.03;99894.69;4548106;77;28581;-80
2022/03/26 18:48:25;;;;;;;20.08;10.25;;;;;;;17.84;61.98;99913.33;4500638;77;28601;-85
2022/03/26 18:54:27;;;;;;;12.43;7.85;;;;;;;17.49;73.09;99928.75;4507498;77;28605;-82
2022/03/26 19:00:34;;;;;;;13.25;6.62;;;;;;;16.93;84.69;99951.43;4541600;77;28485;-82
2022/03/26 19:06:35;;;;;;;12.90;7.72;;;;;;;16.45;96.04;99964.88;4558309;77;28521;-83
2022/03/26 19:12:37;;;;;;;14.38;7.40;;;;;;;16.56;96.42;99959.08;4512255;77;28460;-80
2022/03/26 19:18:38;;;;;;;13.03;8.35;;;;;;;17.25;82.97;99967.92;4539765;77;28484;-81
2022/03/26 19:24:39;;;;;;;16.75;9.28;;;;;;;16.76;86.28;99974.55;4556184;77;28507;-82
2022/03/26 19:30:45;;;;;;;19.87;10.20;;;;;;;-149.40;100.00;119126.13;4519377;77;28515;-83
